sensor_id;sensor_type;location;lat;lon;timestamp;P1;durP1;ratioP1;P2;durP2;ratioP2
47009;SDS011;59230;54.164;-3.124;2023-08-06T00:00:51;8.73;;;3.78;;
47009;SDS011;59230;54.164;-3.124;2023-08-06T00:03:17;8.13;;;4.18;;
47009;SDS011;59230;54.164;-3.124;2023-08-06T00:05:43;10.40;;;4.22;;
47009;SDS011;59230;54.164;-3.124;2023-08-06T00:08:09;6.75;;;3.85;;
47009;SDS011;59230;54.164;-3.124;2023-08-06T00:10:35;8.70;;;3.88;;
47009;SDS011;59230;54.164;-3.124;2023-08-06T00:13:03;12.52;;;5.00;;
47009;SDS011;59230;54.164;-3.124;2023-08-06T00:15:30;8.40;;;3.97;;
47009;SDS011;59230;54.164;-3.124;2023-08-06T00:17:57;7.18;;;3.97;;
47009;SDS011;59230;54.164;-3.124;2023-08-06T00:20:22;6.40;;;3.92;;
47009;SDS011;59230;54.164;-3.124;2023-08-06T00:22:48;11.55;;;5.00;;
47009;SDS011;59230;54.164;-3.124;2023-08-06T00:25:14;10.57;;;4.43;;
47009;SDS011;59230;54.164;-3.124;2023-08-06T00:27:41;7.05;;;4.03;;
47009;SDS011;59230;54.164;-3.124;2023-08-06T00:30:09;8.50;;;3.92;;
47009;SDS011;59230;54.164;-3.124;2023-08-06T00:32:38;10.50;;;4.55;;
47009;SDS011;59230;54.164;-3.124;2023-08-06T00:35:08;8.77;;;4.70;;
47009;SDS011;59230;54.164;-3.124;2023-08-06T00:37:35;8.88;;;4.15;;
47009;SDS011;59230;54.164;-3.124;2023-08-06T00:40:04;8.95;;;4.53;;
47009;SDS011;59230;54.164;-3.124;2023-08-06T00:42:35;8.63;;;4.20;;
47009;SDS011;59230;54.164;-3.124;2023-08-06T00:45:01;10.30;;;4.18;;
47009;SDS011;59230;54.164;-3.124;2023-08-06T00:47:28;10.70;;;4.88;;
47009;SDS011;59230;54.164;-3.124;2023-08-06T00:49:54;7.53;;;4.45;;
47009;SDS011;59230;54.164;-3.124;2023-08-06T00:52:23;11.65;;;4.40;;
47009;SDS011;59230;54.164;-3.124;2023-08-06T00:54:51;16.05;;;4.40;;
47009;SDS011;59230;54.164;-3.124;2023-08-06T00:57:17;13.18;;;4.38;;
47009;SDS011;59230;54.164;-3.124;2023-08-06T00:59:43;9.90;;;4.70;;
47009;SDS011;59230;54.164;-3.124;2023-08-06T01:02:09;9.27;;;4.60;;
47009;SDS011;59230;54.164;-3.124;2023-08-06T01:04:36;9.30;;;3.80;;
47009;SDS011;59230;54.164;-3.124;2023-08-06T01:12:48;8.57;;;4.38;;
47009;SDS011;59230;54.164;-3.124;2023-08-06T01:15:21;10.27;;;4.20;;
47009;SDS011;59230;54.164;-3.124;2023-08-06T01:17:51;9.15;;;4.30;;
47009;SDS011;59230;54.164;-3.124;2023-08-06T01:20:19;9.95;;;4.60;;
47009;SDS011;59230;54.164;-3.124;2023-08-06T01:22:48;12.25;;;5.38;;
47009;SDS011;59230;54.164;-3.124;2023-08-06T01:25:16;9.48;;;4.47;;
47009;SDS011;59230;54.164;-3.124;2023-08-06T01:27:45;8.32;;;4.68;;
47009;SDS011;59230;54.164;-3.124;2023-08-06T01:30:13;12.20;;;4.60;;
47009;SDS011;59230;54.164;-3.124;2023-08-06T01:32:46;11.70;;;4.35;;
47009;SDS011;59230;54.164;-3.124;2023-08-06T01:35:15;6.33;;;4.33;;
47009;SDS011;59230;54.164;-3.124;2023-08-06T01:37:44;9.82;;;4.10;;
47009;SDS011;59230;54.164;-3.124;2023-08-06T01:40:12;11.63;;;5.18;;
47009;SDS011;59230;54.164;-3.124;2023-08-06T01:42:39;10.48;;;4.90;;
47009;SDS011;59230;54.164;-3.124;2023-08-06T01:45:08;12.07;;;5.22;;
47009;SDS011;59230;54.164;-3.124;2023-08-06T01:47:37;10.27;;;4.72;;
47009;SDS011;59230;54.164;-3.124;2023-08-06T01:50:05;12.55;;;5.10;;
47009;SDS011;59230;54.164;-3.124;2023-08-06T01:52:31;10.65;;;4.85;;
47009;SDS011;59230;54.164;-3.124;2023-08-06T01:54:58;8.23;;;4.40;;
47009;SDS011;59230;54.164;-3.124;2023-08-06T01:57:26;9.73;;;4.32;;
47009;SDS011;59230;54.164;-3.124;2023-08-06T01:59:51;7.90;;;4.45;;
47009;SDS011;59230;54.164;-3.124;2023-08-06T02:02:17;10.88;;;4.47;;
47009;SDS011;59230;54.164;-3.124;2023-08-06T02:04:43;13.00;;;5.97;;
47009;SDS011;59230;54.164;-3.124;2023-08-06T02:07:09;11.43;;;4.93;;
47009;SDS011;59230;54.164;-3.124;2023-08-06T02:09:35;8.07;;;4.72;;
47009;SDS011;59230;54.164;-3.124;2023-08-06T02:12:02;7.95;;;4.60;;
47009;SDS011;59230;54.164;-3.124;2023-08-06T02:14:28;8.73;;;4.68;;
47009;SDS011;59230;54.164;-3.124;2023-08-06T02:16:54;9.52;;;4.28;;
47009;SDS011;59230;54.164;-3.124;2023-08-06T02:19:22;9.80;;;4.43;;
47009;SDS011;59230;54.164;-3.124;2023-08-06T02:21:49;11.88;;;4.82;;
47009;SDS011;59230;54.164;-3.124;2023-08-06T02:24:17;13.73;;;5.30;;
47009;SDS011;59230;54.164;-3.124;2023-08-06T02:26:44;10.32;;;4.50;;
47009;SDS011;59230;54.164;-3.124;2023-08-06T02:29:10;10.30;;;4.70;;
47009;SDS011;59230;54.164;-3.124;2023-08-06T02:31:39;10.40;;;4.82;;
47009;SDS011;59230;54.164;-3.124;2023-08-06T02:34:08;14.85;;;4.28;;
47009;SDS011;59230;54.164;-3.124;2023-08-06T02:36:35;9.75;;;4.55;;
47009;SDS011;59230;54.164;-3.124;2023-08-06T02:39:04;8.27;;;4.93;;
47009;SDS011;59230;54.164;-3.124;2023-08-06T02:41:31;8.40;;;5.05;;
47009;SDS011;59230;54.164;-3.124;2023-08-06T02:43:57;10.38;;;5.18;;
47009;SDS011;59230;54.164;-3.124;2023-08-06T02:46:24;7.18;;;4.57;;
47009;SDS011;59230;54.164;-3.124;2023-08-06T02:48:54;10.00;;;4.55;;
47009;SDS011;59230;54.164;-3.124;2023-08-06T02:51:19;7.70;;;4.25;;
47009;SDS011;59230;54.164;-3.124;2023-08-06T02:53:47;9.75;;;4.53;;
47009;SDS011;59230;54.164;-3.124;2023-08-06T02:56:16;11.70;;;4.85;;
47009;SDS011;59230;54.164;-3.124;2023-08-06T02:58:42;12.48;;;5.82;;
47009;SDS011;59230;54.164;-3.124;2023-08-06T03:01:08;9.10;;;5.45;;
47009;SDS011;59230;54.164;-3.124;2023-08-06T03:03:38;10.85;;;4.68;;
47009;SDS011;59230;54.164;-3.124;2023-08-06T03:06:04;12.43;;;4.80;;
47009;SDS011;59230;54.164;-3.124;2023-08-06T03:08:30;9.73;;;4.85;;
47009;SDS011;59230;54.164;-3.124;2023-08-06T03:10:55;12.23;;;4.47;;
47009;SDS011;59230;54.164;-3.124;2023-08-06T03:13:21;10.30;;;4.90;;
47009;SDS011;59230;54.164;-3.124;2023-08-06T03:15:58;10.75;;;4.68;;
47009;SDS011;59230;54.164;-3.124;2023-08-06T03:18:26;11.45;;;4.85;;
47009;SDS011;59230;54.164;-3.124;2023-08-06T03:20:53;9.93;;;4.60;;
47009;SDS011;59230;54.164;-3.124;2023-08-06T03:23:23;8.95;;;5.05;;
47009;SDS011;59230;54.164;-3.124;2023-08-06T03:25:50;10.23;;;4.80;;
47009;SDS011;59230;54.164;-3.124;2023-08-06T03:28:19;10.25;;;5.50;;
47009;SDS011;59230;54.164;-3.124;2023-08-06T03:30:44;11.23;;;4.85;;
47009;SDS011;59230;54.164;-3.124;2023-08-06T03:33:10;9.65;;;4.45;;
47009;SDS011;59230;54.164;-3.124;2023-08-06T03:35:42;9.15;;;4.93;;
47009;SDS011;59230;54.164;-3.124;2023-08-06T03:38:09;11.38;;;5.00;;
47009;SDS011;59230;54.164;-3.124;2023-08-06T03:40:34;9.13;;;4.35;;
47009;SDS011;59230;54.164;-3.124;2023-08-06T03:43:04;5.80;;;3.90;;
47009;SDS011;59230;54.164;-3.124;2023-08-06T03:45:30;4.88;;;3.40;;
47009;SDS011;59230;54.164;-3.124;2023-08-06T03:47:56;6.65;;;3.58;;
47009;SDS011;59230;54.164;-3.124;2023-08-06T03:50:23;5.78;;;3.35;;
47009;SDS011;59230;54.164;-3.124;2023-08-06T03:52:49;6.28;;;3.03;;
47009;SDS011;59230;54.164;-3.124;2023-08-06T03:55:16;4.88;;;2.95;;
47009;SDS011;59230;54.164;-3.124;2023-08-06T03:57:45;7.63;;;3.40;;
47009;SDS011;59230;54.164;-3.124;2023-08-06T04:00:10;5.38;;;3.00;;
47009;SDS011;59230;54.164;-3.124;2023-08-06T04:02:38;7.10;;;3.00;;
47009;SDS011;59230;54.164;-3.124;2023-08-06T04:05:06;5.30;;;3.10;;
47009;SDS011;59230;54.164;-3.124;2023-08-06T04:07:33;8.80;;;3.38;;
47009;SDS011;59230;54.164;-3.124;2023-08-06T04:10:01;6.75;;;3.20;;
47009;SDS011;59230;54.164;-3.124;2023-08-06T04:12:29;5.80;;;2.92;;
47009;SDS011;59230;54.164;-3.124;2023-08-06T04:15:01;10.20;;;3.45;;
47009;SDS011;59230;54.164;-3.124;2023-08-06T04:17:27;7.35;;;3.50;;
47009;SDS011;59230;54.164;-3.124;2023-08-06T04:19:54;5.30;;;2.80;;
47009;SDS011;59230;54.164;-3.124;2023-08-06T04:22:20;5.45;;;3.25;;
47009;SDS011;59230;54.164;-3.124;2023-08-06T04:24:47;9.93;;;3.83;;
47009;SDS011;59230;54.164;-3.124;2023-08-06T04:27:14;7.10;;;3.28;;
47009;SDS011;59230;54.164;-3.124;2023-08-06T04:29:41;6.82;;;3.72;;
47009;SDS011;59230;54.164;-3.124;2023-08-06T04:32:09;9.13;;;3.60;;
47009;SDS011;59230;54.164;-3.124;2023-08-06T04:34:38;8.50;;;2.90;;
47009;SDS011;59230;54.164;-3.124;2023-08-06T04:37:04;7.22;;;3.22;;
47009;SDS011;59230;54.164;-3.124;2023-08-06T04:39:31;7.32;;;3.20;;
47009;SDS011;59230;54.164;-3.124;2023-08-06T04:41:56;8.50;;;3.42;;
47009;SDS011;59230;54.164;-3.124;2023-08-06T04:44:25;5.38;;;3.28;;
47009;SDS011;59230;54.164;-3.124;2023-08-06T04:46:52;6.63;;;3.40;;
47009;SDS011;59230;54.164;-3.124;2023-08-06T04:49:19;6.38;;;3.33;;
47009;SDS011;59230;54.164;-3.124;2023-08-06T04:51:45;6.60;;;3.65;;
47009;SDS011;59230;54.164;-3.124;2023-08-06T04:54:11;10.25;;;3.75;;
47009;SDS011;59230;54.164;-3.124;2023-08-06T04:56:41;8.23;;;3.55;;
47009;SDS011;59230;54.164;-3.124;2023-08-06T04:59:07;4.15;;;3.15;;
47009;SDS011;59230;54.164;-3.124;2023-08-06T05:01:33;5.80;;;3.42;;
47009;SDS011;59230;54.164;-3.124;2023-08-06T05:03:59;5.78;;;3.20;;
47009;SDS011;59230;54.164;-3.124;2023-08-06T05:06:25;7.28;;;3.60;;
47009;SDS011;59230;54.164;-3.124;2023-08-06T05:08:52;6.15;;;3.13;;
47009;SDS011;59230;54.164;-3.124;2023-08-06T05:11:19;4.78;;;2.83;;
47009;SDS011;59230;54.164;-3.124;2023-08-06T05:13:45;4.20;;;3.40;;
47009;SDS011;59230;54.164;-3.124;2023-08-06T05:16:12;5.22;;;3.35;;
47009;SDS011;59230;54.164;-3.124;2023-08-06T05:18:37;11.18;;;3.45;;
47009;SDS011;59230;54.164;-3.124;2023-08-06T05:21:05;8.15;;;3.47;;
47009;SDS011;59230;54.164;-3.124;2023-08-06T05:23:30;8.90;;;3.40;;
47009;SDS011;59230;54.164;-3.124;2023-08-06T05:25:56;5.88;;;3.15;;
47009;SDS011;59230;54.164;-3.124;2023-08-06T05:28:22;4.63;;;3.03;;
47009;SDS011;59230;54.164;-3.124;2023-08-06T05:30:49;7.22;;;3.42;;
47009;SDS011;59230;54.164;-3.124;2023-08-06T05:33:18;8.75;;;3.40;;
47009;SDS011;59230;54.164;-3.124;2023-08-06T05:35:44;5.40;;;3.10;;
47009;SDS011;59230;54.164;-3.124;2023-08-06T05:38:12;5.55;;;3.20;;
47009;SDS011;59230;54.164;-3.124;2023-08-06T05:40:41;6.00;;;3.35;;
47009;SDS011;59230;54.164;-3.124;2023-08-06T05:43:10;7.80;;;3.25;;
47009;SDS011;59230;54.164;-3.124;2023-08-06T05:45:38;5.93;;;3.55;;
47009;SDS011;59230;54.164;-3.124;2023-08-06T05:48:09;6.88;;;3.40;;
47009;SDS011;59230;54.164;-3.124;2023-08-06T05:50:35;6.85;;;3.90;;
47009;SDS011;59230;54.164;-3.124;2023-08-06T05:53:01;5.55;;;3.53;;
47009;SDS011;59230;54.164;-3.124;2023-08-06T05:55:27;5.95;;;3.63;;
47009;SDS011;59230;54.164;-3.124;2023-08-06T05:57:52;8.00;;;3.90;;
47009;SDS011;59230;54.164;-3.124;2023-08-06T06:00:18;7.47;;;3.90;;
47009;SDS011;59230;54.164;-3.124;2023-08-06T06:02:43;6.35;;;3.40;;
47009;SDS011;59230;54.164;-3.124;2023-08-06T06:05:10;5.90;;;3.53;;
47009;SDS011;59230;54.164;-3.124;2023-08-06T06:07:38;8.80;;;3.70;;
47009;SDS011;59230;54.164;-3.124;2023-08-06T06:10:04;5.95;;;3.33;;
47009;SDS011;59230;54.164;-3.124;2023-08-06T06:12:32;10.57;;;3.50;;
47009;SDS011;59230;54.164;-3.124;2023-08-06T06:15:01;7.05;;;3.40;;
47009;SDS011;59230;54.164;-3.124;2023-08-06T06:17:28;7.47;;;3.42;;
47009;SDS011;59230;54.164;-3.124;2023-08-06T06:19:54;5.55;;;3.10;;
47009;SDS011;59230;54.164;-3.124;2023-08-06T06:22:21;6.40;;;3.35;;
47009;SDS011;59230;54.164;-3.124;2023-08-06T06:24:48;9.05;;;3.88;;
47009;SDS011;59230;54.164;-3.124;2023-08-06T06:27:15;8.50;;;3.58;;
47009;SDS011;59230;54.164;-3.124;2023-08-06T06:29:42;10.60;;;3.47;;
47009;SDS011;59230;54.164;-3.124;2023-08-06T06:32:08;8.48;;;3.53;;
47009;SDS011;59230;54.164;-3.124;2023-08-06T06:34:34;6.78;;;3.60;;
47009;SDS011;59230;54.164;-3.124;2023-08-06T06:37:01;8.18;;;3.30;;
47009;SDS011;59230;54.164;-3.124;2023-08-06T06:39:28;9.18;;;3.33;;
47009;SDS011;59230;54.164;-3.124;2023-08-06T06:41:54;6.13;;;3.58;;
47009;SDS011;59230;54.164;-3.124;2023-08-06T06:44:20;11.48;;;3.10;;
47009;SDS011;59230;54.164;-3.124;2023-08-06T06:46:47;8.25;;;3.15;;
47009;SDS011;59230;54.164;-3.124;2023-08-06T06:49:13;5.70;;;2.65;;
47009;SDS011;59230;54.164;-3.124;2023-08-06T06:51:42;4.60;;;3.05;;
47009;SDS011;59230;54.164;-3.124;2023-08-06T06:54:07;5.75;;;3.00;;
47009;SDS011;59230;54.164;-3.124;2023-08-06T06:56:32;9.00;;;3.42;;
47009;SDS011;59230;54.164;-3.124;2023-08-06T06:58:59;8.52;;;3.63;;
47009;SDS011;59230;54.164;-3.124;2023-08-06T07:01:26;6.88;;;3.38;;
47009;SDS011;59230;54.164;-3.124;2023-08-06T07:03:53;9.10;;;3.33;;
47009;SDS011;59230;54.164;-3.124;2023-08-06T07:06:19;7.78;;;3.22;;
47009;SDS011;59230;54.164;-3.124;2023-08-06T07:08:45;6.53;;;3.00;;
47009;SDS011;59230;54.164;-3.124;2023-08-06T07:11:13;11.60;;;3.40;;
47009;SDS011;59230;54.164;-3.124;2023-08-06T07:13:45;4.97;;;2.97;;
47009;SDS011;59230;54.164;-3.124;2023-08-06T07:16:13;7.25;;;2.85;;
47009;SDS011;59230;54.164;-3.124;2023-08-06T07:18:39;5.45;;;2.70;;
47009;SDS011;59230;54.164;-3.124;2023-08-06T07:21:08;5.00;;;3.13;;
47009;SDS011;59230;54.164;-3.124;2023-08-06T07:23:36;6.82;;;2.85;;
47009;SDS011;59230;54.164;-3.124;2023-08-06T07:26:03;6.63;;;2.80;;
47009;SDS011;59230;54.164;-3.124;2023-08-06T07:28:29;6.95;;;3.00;;
47009;SDS011;59230;54.164;-3.124;2023-08-06T07:30:56;6.47;;;3.00;;
47009;SDS011;59230;54.164;-3.124;2023-08-06T07:33:24;5.60;;;2.58;;
47009;SDS011;59230;54.164;-3.124;2023-08-06T07:35:53;5.80;;;3.13;;
47009;SDS011;59230;54.164;-3.124;2023-08-06T07:38:18;7.75;;;2.70;;
47009;SDS011;59230;54.164;-3.124;2023-08-06T07:40:45;4.18;;;2.28;;
47009;SDS011;59230;54.164;-3.124;2023-08-06T07:43:14;6.55;;;3.10;;
47009;SDS011;59230;54.164;-3.124;2023-08-06T07:45:42;4.13;;;2.63;;
47009;SDS011;59230;54.164;-3.124;2023-08-06T07:48:09;6.05;;;2.83;;
47009;SDS011;59230;54.164;-3.124;2023-08-06T07:50:35;7.85;;;3.10;;
47009;SDS011;59230;54.164;-3.124;2023-08-06T07:53:04;8.18;;;3.53;;
47009;SDS011;59230;54.164;-3.124;2023-08-06T07:55:30;5.45;;;2.92;;
47009;SDS011;59230;54.164;-3.124;2023-08-06T07:57:58;5.00;;;2.75;;
47009;SDS011;59230;54.164;-3.124;2023-08-06T08:00:26;3.85;;;3.00;;
47009;SDS011;59230;54.164;-3.124;2023-08-06T08:02:52;5.57;;;3.05;;
47009;SDS011;59230;54.164;-3.124;2023-08-06T08:05:20;6.00;;;3.20;;
47009;SDS011;59230;54.164;-3.124;2023-08-06T08:07:51;4.68;;;2.60;;
47009;SDS011;59230;54.164;-3.124;2023-08-06T08:10:17;4.32;;;2.83;;
47009;SDS011;59230;54.164;-3.124;2023-08-06T08:12:44;5.20;;;2.75;;
47009;SDS011;59230;54.164;-3.124;2023-08-06T08:15:14;4.28;;;2.58;;
47009;SDS011;59230;54.164;-3.124;2023-08-06T08:17:43;5.75;;;2.65;;
47009;SDS011;59230;54.164;-3.124;2023-08-06T08:20:10;7.75;;;2.58;;
47009;SDS011;59230;54.164;-3.124;2023-08-06T08:22:39;4.70;;;2.70;;
47009;SDS011;59230;54.164;-3.124;2023-08-06T08:25:09;6.80;;;3.10;;
47009;SDS011;59230;54.164;-3.124;2023-08-06T08:27:38;4.40;;;2.67;;
47009;SDS011;59230;54.164;-3.124;2023-08-06T08:30:03;7.03;;;2.80;;
47009;SDS011;59230;54.164;-3.124;2023-08-06T08:32:31;5.43;;;2.55;;
47009;SDS011;59230;54.164;-3.124;2023-08-06T08:34:58;7.25;;;3.05;;
47009;SDS011;59230;54.164;-3.124;2023-08-06T08:37:26;3.95;;;2.95;;
47009;SDS011;59230;54.164;-3.124;2023-08-06T08:39:53;4.38;;;2.70;;
47009;SDS011;59230;54.164;-3.124;2023-08-06T08:42:21;4.47;;;2.67;;
47009;SDS011;59230;54.164;-3.124;2023-08-06T08:44:47;7.15;;;3.35;;
47009;SDS011;59230;54.164;-3.124;2023-08-06T08:47:14;4.80;;;2.67;;
47009;SDS011;59230;54.164;-3.124;2023-08-06T08:49:44;5.63;;;2.38;;
47009;SDS011;59230;54.164;-3.124;2023-08-06T08:52:11;4.53;;;2.67;;
47009;SDS011;59230;54.164;-3.124;2023-08-06T08:54:38;2.97;;;2.40;;
47009;SDS011;59230;54.164;-3.124;2023-08-06T08:57:07;6.15;;;2.70;;
47009;SDS011;59230;54.164;-3.124;2023-08-06T08:59:33;4.05;;;2.50;;
47009;SDS011;59230;54.164;-3.124;2023-08-06T09:02:02;3.47;;;2.13;;
47009;SDS011;59230;54.164;-3.124;2023-08-06T09:04:31;4.40;;;2.53;;
47009;SDS011;59230;54.164;-3.124;2023-08-06T09:06:57;7.50;;;3.20;;
47009;SDS011;59230;54.164;-3.124;2023-08-06T09:11:58;4.93;;;2.78;;
47009;SDS011;59230;54.164;-3.124;2023-08-06T09:14:29;5.65;;;2.22;;
47009;SDS011;59230;54.164;-3.124;2023-08-06T09:16:56;3.63;;;2.33;;
47009;SDS011;59230;54.164;-3.124;2023-08-06T09:19:28;5.88;;;2.35;;
47009;SDS011;59230;54.164;-3.124;2023-08-06T09:21:55;5.72;;;2.40;;
47009;SDS011;59230;54.164;-3.124;2023-08-06T09:24:21;4.43;;;2.25;;
47009;SDS011;59230;54.164;-3.124;2023-08-06T09:26:47;4.35;;;2.22;;
47009;SDS011;59230;54.164;-3.124;2023-08-06T09:29:13;4.85;;;2.13;;
47009;SDS011;59230;54.164;-3.124;2023-08-06T09:31:49;3.58;;;2.20;;
47009;SDS011;59230;54.164;-3.124;2023-08-06T09:34:22;3.15;;;1.95;;
47009;SDS011;59230;54.164;-3.124;2023-08-06T09:39:19;4.00;;;2.00;;
47009;SDS011;59230;54.164;-3.124;2023-08-06T09:41:46;3.33;;;2.30;;
47009;SDS011;59230;54.164;-3.124;2023-08-06T09:44:19;3.55;;;1.92;;
47009;SDS011;59230;54.164;-3.124;2023-08-06T09:46:53;3.33;;;1.90;;
47009;SDS011;59230;54.164;-3.124;2023-08-06T09:49:23;3.42;;;2.10;;
47009;SDS011;59230;54.164;-3.124;2023-08-06T09:51:55;6.10;;;1.73;;
47009;SDS011;59230;54.164;-3.124;2023-08-06T09:54:27;4.15;;;1.73;;
47009;SDS011;59230;54.164;-3.124;2023-08-06T09:56:56;2.38;;;1.70;;
47009;SDS011;59230;54.164;-3.124;2023-08-06T09:59:23;3.47;;;1.83;;
47009;SDS011;59230;54.164;-3.124;2023-08-06T10:01:54;2.47;;;1.65;;
47009;SDS011;59230;54.164;-3.124;2023-08-06T10:04:21;3.25;;;1.60;;
47009;SDS011;59230;54.164;-3.124;2023-08-06T10:06:52;2.40;;;1.52;;
47009;SDS011;59230;54.164;-3.124;2023-08-06T10:09:20;7.15;;;1.77;;
47009;SDS011;59230;54.164;-3.124;2023-08-06T10:11:49;2.60;;;1.60;;
47009;SDS011;59230;54.164;-3.124;2023-08-06T10:16:51;5.75;;;1.70;;
47009;SDS011;59230;54.164;-3.124;2023-08-06T10:19:16;2.67;;;1.70;;
47009;SDS011;59230;54.164;-3.124;2023-08-06T10:27:42;2.30;;;1.60;;
47009;SDS011;59230;54.164;-3.124;2023-08-06T10:32:59;3.05;;;1.65;;
47009;SDS011;59230;54.164;-3.124;2023-08-06T10:35:46;5.95;;;1.73;;
47009;SDS011;59230;54.164;-3.124;2023-08-06T10:38:22;7.32;;;1.80;;
47009;SDS011;59230;54.164;-3.124;2023-08-06T10:43:38;5.03;;;1.52;;
47009;SDS011;59230;54.164;-3.124;2023-08-06T10:46:11;4.50;;;1.67;;
47009;SDS011;59230;54.164;-3.124;2023-08-06T10:48:56;2.40;;;1.60;;
47009;SDS011;59230;54.164;-3.124;2023-08-06T10:51:22;2.20;;;1.23;;
47009;SDS011;59230;54.164;-3.124;2023-08-06T10:53:49;3.70;;;1.40;;
47009;SDS011;59230;54.164;-3.124;2023-08-06T10:56:18;2.70;;;1.30;;
47009;SDS011;59230;54.164;-3.124;2023-08-06T10:58:48;3.45;;;1.70;;
47009;SDS011;59230;54.164;-3.124;2023-08-06T11:01:17;2.85;;;1.40;;
47009;SDS011;59230;54.164;-3.124;2023-08-06T11:03:44;4.97;;;1.60;;
47009;SDS011;59230;54.164;-3.124;2023-08-06T11:06:17;7.55;;;2.10;;
47009;SDS011;59230;54.164;-3.124;2023-08-06T11:08:47;6.00;;;1.85;;
47009;SDS011;59230;54.164;-3.124;2023-08-06T11:11:18;3.50;;;1.45;;
47009;SDS011;59230;54.164;-3.124;2023-08-06T11:13:47;7.03;;;1.77;;
47009;SDS011;59230;54.164;-3.124;2023-08-06T11:18:46;5.22;;;1.65;;
47009;SDS011;59230;54.164;-3.124;2023-08-06T11:21:13;2.83;;;1.60;;
47009;SDS011;59230;54.164;-3.124;2023-08-06T11:23:40;4.30;;;1.58;;
47009;SDS011;59230;54.164;-3.124;2023-08-06T11:26:07;5.20;;;1.75;;
47009;SDS011;59230;54.164;-3.124;2023-08-06T11:28:33;6.03;;;1.80;;
47009;SDS011;59230;54.164;-3.124;2023-08-06T11:31:05;2.85;;;1.40;;
47009;SDS011;59230;54.164;-3.124;2023-08-06T11:33:34;2.15;;;1.25;;
47009;SDS011;59230;54.164;-3.124;2023-08-06T11:35:59;4.30;;;1.50;;
47009;SDS011;59230;54.164;-3.124;2023-08-06T11:38:28;2.90;;;1.27;;
47009;SDS011;59230;54.164;-3.124;2023-08-06T11:40:54;4.68;;;1.80;;
47009;SDS011;59230;54.164;-3.124;2023-08-06T11:43:21;2.72;;;1.30;;
47009;SDS011;59230;54.164;-3.124;2023-08-06T11:45:51;2.97;;;1.45;;
47009;SDS011;59230;54.164;-3.124;2023-08-06T11:48:22;4.53;;;1.40;;
47009;SDS011;59230;54.164;-3.124;2023-08-06T11:50:54;3.92;;;1.35;;
47009;SDS011;59230;54.164;-3.124;2023-08-06T11:53:27;3.28;;;1.50;;
47009;SDS011;59230;54.164;-3.124;2023-08-06T11:55:56;2.92;;;1.60;;
47009;SDS011;59230;54.164;-3.124;2023-08-06T11:58:21;2.00;;;1.20;;
47009;SDS011;59230;54.164;-3.124;2023-08-06T12:00:47;5.70;;;1.60;;
47009;SDS011;59230;54.164;-3.124;2023-08-06T12:03:18;3.50;;;1.50;;
47009;SDS011;59230;54.164;-3.124;2023-08-06T12:05:45;3.97;;;1.20;;
47009;SDS011;59230;54.164;-3.124;2023-08-06T12:08:13;4.90;;;1.73;;
47009;SDS011;59230;54.164;-3.124;2023-08-06T12:10:42;6.35;;;1.80;;
47009;SDS011;59230;54.164;-3.124;2023-08-06T12:13:08;2.55;;;1.45;;
47009;SDS011;59230;54.164;-3.124;2023-08-06T12:15:34;3.60;;;1.55;;
47009;SDS011;59230;54.164;-3.124;2023-08-06T12:18:02;7.05;;;1.65;;
47009;SDS011;59230;54.164;-3.124;2023-08-06T12:20:30;3.10;;;1.40;;
47009;SDS011;59230;54.164;-3.124;2023-08-06T12:22:56;4.40;;;1.60;;
47009;SDS011;59230;54.164;-3.124;2023-08-06T12:25:24;3.42;;;1.40;;
47009;SDS011;59230;54.164;-3.124;2023-08-06T12:27:50;2.50;;;1.30;;
47009;SDS011;59230;54.164;-3.124;2023-08-06T12:30:15;2.05;;;1.40;;
47009;SDS011;59230;54.164;-3.124;2023-08-06T12:32:41;5.13;;;1.45;;
47009;SDS011;59230;54.164;-3.124;2023-08-06T12:35:09;2.33;;;1.38;;
47009;SDS011;59230;54.164;-3.124;2023-08-06T12:37:34;6.40;;;1.35;;
47009;SDS011;59230;54.164;-3.124;2023-08-06T12:40:02;1.95;;;1.17;;
47009;SDS011;59230;54.164;-3.124;2023-08-06T12:42:28;4.07;;;1.45;;
47009;SDS011;59230;54.164;-3.124;2023-08-06T12:44:53;3.00;;;1.02;;
47009;SDS011;59230;54.164;-3.124;2023-08-06T12:47:19;4.93;;;1.05;;
47009;SDS011;59230;54.164;-3.124;2023-08-06T12:49:45;2.40;;;1.10;;
47009;SDS011;59230;54.164;-3.124;2023-08-06T12:52:11;3.35;;;1.08;;
47009;SDS011;59230;54.164;-3.124;2023-08-06T12:54:40;3.40;;;0.80;;
47009;SDS011;59230;54.164;-3.124;2023-08-06T12:57:06;6.22;;;1.02;;
47009;SDS011;59230;54.164;-3.124;2023-08-06T12:59:33;3.10;;;1.15;;
47009;SDS011;59230;54.164;-3.124;2023-08-06T13:01:59;2.97;;;1.10;;
47009;SDS011;59230;54.164;-3.124;2023-08-06T13:04:28;0.98;;;0.70;;
47009;SDS011;59230;54.164;-3.124;2023-08-06T13:06:54;2.00;;;1.02;;
47009;SDS011;59230;54.164;-3.124;2023-08-06T13:09:21;3.60;;;0.90;;
47009;SDS011;59230;54.164;-3.124;2023-08-06T13:11:49;1.75;;;0.82;;
47009;SDS011;59230;54.164;-3.124;2023-08-06T13:14:15;11.48;;;1.67;;
47009;SDS011;59230;54.164;-3.124;2023-08-06T13:16:46;4.63;;;1.25;;
47009;SDS011;59230;54.164;-3.124;2023-08-06T13:19:12;1.27;;;0.75;;
47009;SDS011;59230;54.164;-3.124;2023-08-06T13:24:05;5.18;;;0.98;;
47009;SDS011;59230;54.164;-3.124;2023-08-06T13:26:33;3.20;;;1.00;;
47009;SDS011;59230;54.164;-3.124;2023-08-06T13:28:59;5.55;;;1.20;;
47009;SDS011;59230;54.164;-3.124;2023-08-06T13:31:27;2.25;;;0.98;;
47009;SDS011;59230;54.164;-3.124;2023-08-06T13:33:56;8.20;;;1.25;;
47009;SDS011;59230;54.164;-3.124;2023-08-06T13:36:24;1.90;;;0.90;;
47009;SDS011;59230;54.164;-3.124;2023-08-06T13:38:51;4.50;;;1.10;;
47009;SDS011;59230;54.164;-3.124;2023-08-06T13:41:17;4.07;;;1.02;;
47009;SDS011;59230;54.164;-3.124;2023-08-06T13:43:43;3.88;;;1.10;;
47009;SDS011;59230;54.164;-3.124;2023-08-06T13:46:12;5.47;;;1.40;;
47009;SDS011;59230;54.164;-3.124;2023-08-06T13:48:44;4.55;;;1.38;;
47009;SDS011;59230;54.164;-3.124;2023-08-06T13:51:11;3.55;;;1.40;;
47009;SDS011;59230;54.164;-3.124;2023-08-06T13:53:39;3.55;;;1.33;;
47009;SDS011;59230;54.164;-3.124;2023-08-06T13:56:07;3.38;;;0.80;;
47009;SDS011;59230;54.164;-3.124;2023-08-06T13:58:38;3.25;;;0.95;;
47009;SDS011;59230;54.164;-3.124;2023-08-06T14:01:04;5.20;;;1.48;;
47009;SDS011;59230;54.164;-3.124;2023-08-06T14:03:30;2.90;;;1.00;;
47009;SDS011;59230;54.164;-3.124;2023-08-06T14:05:56;5.85;;;1.10;;
47009;SDS011;59230;54.164;-3.124;2023-08-06T14:08:22;4.63;;;1.10;;
47009;SDS011;59230;54.164;-3.124;2023-08-06T14:10:51;3.00;;;0.88;;
47009;SDS011;59230;54.164;-3.124;2023-08-06T14:13:18;3.53;;;1.20;;
47009;SDS011;59230;54.164;-3.124;2023-08-06T14:15:45;2.92;;;1.17;;
47009;SDS011;59230;54.164;-3.124;2023-08-06T14:18:16;4.68;;;1.30;;
47009;SDS011;59230;54.164;-3.124;2023-08-06T14:20:44;3.85;;;0.82;;
47009;SDS011;59230;54.164;-3.124;2023-08-06T14:23:14;5.10;;;0.98;;
47009;SDS011;59230;54.164;-3.124;2023-08-06T14:25:40;2.65;;;1.13;;
47009;SDS011;59230;54.164;-3.124;2023-08-06T14:28:06;3.78;;;1.00;;
47009;SDS011;59230;54.164;-3.124;2023-08-06T14:30:33;4.13;;;0.75;;
47009;SDS011;59230;54.164;-3.124;2023-08-06T14:32:59;3.65;;;1.20;;
47009;SDS011;59230;54.164;-3.124;2023-08-06T14:35:29;1.58;;;0.70;;
47009;SDS011;59230;54.164;-3.124;2023-08-06T14:37:56;1.95;;;0.77;;
47009;SDS011;59230;54.164;-3.124;2023-08-06T14:40:23;2.47;;;1.15;;
47009;SDS011;59230;54.164;-3.124;2023-08-06T14:42:53;1.92;;;0.90;;
47009;SDS011;59230;54.164;-3.124;2023-08-06T14:45:18;3.63;;;1.27;;
47009;SDS011;59230;54.164;-3.124;2023-08-06T14:47:44;4.30;;;1.23;;
47009;SDS011;59230;54.164;-3.124;2023-08-06T14:50:11;4.63;;;1.20;;
47009;SDS011;59230;54.164;-3.124;2023-08-06T14:52:40;2.45;;;0.70;;
47009;SDS011;59230;54.164;-3.124;2023-08-06T14:55:10;2.38;;;0.90;;
47009;SDS011;59230;54.164;-3.124;2023-08-06T14:57:37;3.03;;;1.10;;
47009;SDS011;59230;54.164;-3.124;2023-08-06T15:00:06;2.40;;;0.90;;
47009;SDS011;59230;54.164;-3.124;2023-08-06T15:02:34;3.13;;;0.75;;
47009;SDS011;59230;54.164;-3.124;2023-08-06T15:05:03;2.45;;;1.00;;